Data for 05/08/2016

Time Sea-Level Adjusted Pressure Absolute Pressure Temperature Relative Humidity Dew Point   
(mb) (inHg) (mb) (inHg) (C) (F) (%) (C) (F)
00:05 1012 29.88 841 24.83 11.3 52.3 53 2.1 35.7
00:10 1012 29.88 841 24.83 11.1 52 53 2 35.6
00:15 1012 29.88 841 24.83 11.1 51.9 53 2 35.6
00:20 1012 29.88 841 24.83 11 51.8 54 2 35.6
00:25 1012 29.88 841 24.83 10.9 51.6 54 1.9 35.5
00:30 1012 29.88 841 24.83 10.9 51.6 54 2.1 35.8
00:35 1012 29.88 841 24.83 10.7 51.3 55 2.1 35.7
00:40 1012 29.88 841 24.83 10.6 51.2 54 1.8 35.3
00:45 1012 29.88 841 24.83 10.7 51.2 54 1.8 35.3
00:50 1012 29.88 841 24.83 10.6 51.1 54 1.8 35.3
00:55 1012 29.88 841 24.83 10.6 51.2 54 1.7 35
01:00 1011 29.85 841 24.83 10.7 51.3 52 1.4 34.6
01:05 1012 29.88 841 24.83 10.9 51.6 51 1.3 34.3
01:10 1011 29.85 841 24.83 10.9 51.7 51 1.3 34.3
01:15 1011 29.85 841 24.83 10.8 51.4 52 1.3 34.4
01:20 1011 29.85 841 24.83 10.6 51 52 1.3 34.3
01:25 1011 29.85 841 24.83 10.4 50.8 53 1.4 34.5
01:30 1011 29.85 841 24.83 10.1 50.2 55 1.5 34.7
01:35 1012 29.88 841 24.83 9.8 49.6 56 1.5 34.7
01:40 1012 29.88 841 24.83 9.5 49.1 58 1.6 34.9
01:45 1012 29.88 841 24.83 9.2 48.6 59 1.6 34.8
01:50 1012 29.88 841 24.83 9.1 48.3 60 1.6 34.9
01:55 1012 29.88 841 24.83 8.9 48 61 1.7 35.1
02:00 1012 29.88 841 24.83 8.8 47.8 61 1.7 35
02:05 1012 29.88 841 24.83 8.7 47.6 61 1.7 35
02:10 1011 29.85 841 24.83 8.6 47.4 62 1.6 34.9
02:15 1012 29.88 841 24.83 8.5 47.2 62 1.7 35
02:20 1011 29.85 841 24.83 8.4 47.2 61 1.4 34.5
02:25 1011 29.85 841 24.83 8.4 47.2 62 1.6 34.8
02:30 1011 29.85 841 24.83 8.3 46.9 62 1.5 34.7
02:35 1011 29.85 841 24.83 8.2 46.8 63 1.6 34.8
02:40 1011 29.85 841 24.83 8.1 46.6 63 1.6 34.9
02:45 1011 29.85 841 24.83 8.3 46.9 62 1.5 34.7
02:50 1011 29.85 841 24.83 8.4 47 64 2 35.7
02:55 1011 29.85 840 24.81 8.1 46.6 66 2.2 36
03:00 1011 29.85 840 24.81 8 46.4 66 2 35.6
03:05 1011 29.85 840 24.81 8.1 46.6 67 2.3 36.1
03:10 1011 29.85 840 24.81 7.8 46.1 68 2.3 36.1
03:15 1011 29.85 840 24.81 7.5 45.4 68 2 35.6
03:20 1011 29.85 840 24.81 7.7 45.8 68 2.1 35.8
03:25 1011 29.85 840 24.81 8 46.5 66 2 35.6
03:30 1011 29.85 840 24.81 8.3 47 63 1.8 35.2
03:35 1011 29.85 840 24.81 8.3 46.9 66 2.4 36.3
03:40 1011 29.85 840 24.81 7.9 46.3 67 2.2 35.9
03:45 1011 29.85 840 24.81 7.7 45.8 68 2.2 36
03:50 1011 29.85 840 24.81 7.6 45.7 69 2.2 36
03:55 1011 29.85 840 24.81 7.6 45.8 68 2.2 36
04:00 1011 29.85 840 24.81 7.6 45.6 69 2.2 35.9
04:05 1011 29.85 840 24.81 7.4 45.4 69 2.2 35.9
04:10 1011 29.85 840 24.81 7.3 45.1 70 2.2 36
04:15 1011 29.85 840 24.81 7.1 44.7 71 2.1 35.8
04:20 1011 29.85 840 24.81 6.8 44.3 71 2 35.6
04:25 1011 29.85 840 24.81 6.7 44.1 72 2 35.6
04:30 1011 29.85 840 24.81 6.9 44.4 71 1.9 35.4
04:35 1011 29.85 840 24.81 7.1 44.8 69 1.9 35.4
04:40 1011 29.85 840 24.81 7.3 45.1 70 2.1 35.9
04:45 1011 29.85 840 24.81 7 44.7 70 2 35.6
04:50 1010 29.83 840 24.81 7.1 44.7 69 1.9 35.3
04:55 1011 29.85 840 24.81 7 44.6 70 1.9 35.4
05:00 1011 29.85 840 24.81 6.8 44.2 71 1.9 35.4
05:05 1011 29.85 840 24.81 6.5 43.7 72 1.8 35.2
05:10 1010 29.83 840 24.81 6.6 43.8 72 1.9 35.4
05:15 1010 29.83 840 24.81 6.4 43.6 72 1.9 35.3
05:20 1010 29.83 840 24.81 6.4 43.5 72 1.8 35.3
05:25 1010 29.83 840 24.81 6.4 43.5 72 1.8 35.2
05:30 1010 29.83 840 24.81 6.3 43.3 73 1.9 35.4
05:35 1010 29.83 840 24.81 6.3 43.3 73 1.8 35.3
05:40 1010 29.83 840 24.81 6.4 43.5 73 1.8 35.3
05:45 1010 29.83 840 24.81 6.6 43.8 72 1.9 35.5
05:50 1010 29.83 840 24.81 6.8 44.3 71 1.9 35.5
05:55 1010 29.83 840 24.81 7.2 44.9 70 2.1 35.8
06:00 1010 29.83 840 24.81 7.4 45.3 69 2.1 35.8
06:05 1010 29.83 840 24.81 7.7 45.8 68 2.1 35.8
06:10 1010 29.83 840 24.81 7.9 46.3 67 2.3 36.1
06:15 1010 29.83 840 24.81 8.3 46.9 66 2.3 36.2
06:20 1010 29.83 840 24.81 8.7 47.7 64 2.3 36.2
06:25 1010 29.83 840 24.81 9.1 48.3 63 2.5 36.4
06:30 1010 29.83 840 24.81 9.3 48.8 63 2.6 36.7
06:35 1010 29.83 840 24.81 9.6 49.3 61 2.5 36.6
06:40 1010 29.83 840 24.81 9.7 49.4 62 2.7 36.9
06:45 1010 29.83 840 24.81 10.1 50.2 60 2.7 36.9
06:50 1010 29.83 839 24.78 10.4 50.7 60 3 37.4
06:55 1010 29.83 839 24.78 10.5 50.8 59 2.9 37.3
07:00 1010 29.83 839 24.78 10.8 51.4 59 3.1 37.6
07:05 1010 29.83 839 24.78 11.1 52 59 3.4 38
07:10 1010 29.83 839 24.78 11.3 52.4 56 2.9 37.3
07:15 1010 29.83 839 24.78 12 53.6 55 3.2 37.7
07:20 1010 29.83 839 24.78 12.5 54.5 53 3.2 37.8
07:25 1010 29.83 839 24.78 12.5 54.5 53 3.4 38
07:30 1010 29.83 839 24.78 12.8 55 52 3.1 37.6
07:35 1010 29.83 839 24.78 13.9 56.9 49 3.3 38
07:40 1010 29.83 839 24.78 14.4 57.9 47 3.2 37.7
07:45 1010 29.83 839 24.78 14.5 58.1 47 3.5 38.4
07:50 1010 29.83 839 24.78 14.5 58.1 46 3 37.3
07:55 1010 29.83 839 24.78 14 57.2 47 3.1 37.5
08:00 1010 29.83 839 24.78 14.6 58.3 45 3 37.3
08:05 1010 29.83 839 24.78 14.9 58.8 44 3 37.3
08:10 1010 29.83 839 24.78 15.2 59.4 44 3.1 37.5
08:15 1010 29.83 839 24.78 15.1 59.1 45 3.4 38.1
08:20 1010 29.83 839 24.78 14.7 58.5 47 3.5 38.3
08:25 1010 29.83 839 24.78 14 57.2 48 3.3 37.9
08:30 1009 29.8 839 24.78 14.9 58.9 44 3 37.4
08:35 1009 29.8 839 24.78 14.8 58.6 45 2.9 37.3
08:40 1009 29.8 839 24.78 15.4 59.7 43 2.9 37.2
08:45 1009 29.8 839 24.78 16.2 61.1 41 2.9 37.2
08:50 1009 29.8 839 24.78 16.4 61.4 43 3.8 38.8
08:55 1009 29.8 839 24.78 15.6 60.1 43 3.3 38
09:00 1009 29.8 838 24.75 16.4 61.5 40 2.9 37.3
09:05 1009 29.8 838 24.75 17.1 62.7 41 3.9 39
09:10 1009 29.8 838 24.75 17.4 63.2 38 3.2 37.8
09:15 1009 29.8 838 24.75 17.7 63.9 37 3.1 37.6
09:20 1009 29.8 838 24.75 17.7 63.8 39 3.6 38.5
09:25 1009 29.8 838 24.75 17.5 63.4 41 4.2 39.6
09:30 1009 29.8 838 24.75 16.8 62.2 40 3.3 38
09:35 1009 29.8 838 24.75 17.8 64 38 3.3 37.9
09:40 1009 29.8 838 24.75 18.4 65.1 35 3 37.3
09:45 1009 29.8 838 24.75 18.8 65.9 33 2.5 36.6
09:50 1008 29.77 838 24.75 19.1 66.3 34 3 37.4
09:55 1008 29.77 838 24.75 18.8 65.9 35 3 37.4
10:00 1008 29.77 838 24.75 19.7 67.4 32 2.8 37.1
10:05 1008 29.77 838 24.75 19.6 67.2 34 3.3 37.9
10:10 1008 29.77 837 24.72 18.4 65 33 2.1 35.8
10:15 1008 29.77 837 24.72 19.5 67.2 32 2.5 36.5
10:20 1008 29.77 837 24.72 20.1 68.1 32 2.9 37.3
10:25 1008 29.77 837 24.72 20 67.9 32 2.7 36.9
10:30 1008 29.77 837 24.72 20.1 68.1 31 2.5 36.6
10:35 1008 29.77 837 24.72 20.3 68.6 31 2.9 37.2
10:40 1008 29.77 837 24.72 20.7 69.2 31 3.1 37.5
10:45 1008 29.77 837 24.72 20.8 69.5 31 3.2 37.8
10:50 1008 29.77 837 24.72 20.9 69.7 31 3.2 37.8
10:55 1008 29.77 837 24.72 20.9 69.6 29 2.6 36.6
11:00 1008 29.77 837 24.72 20.9 69.6 29 2.6 36.7
11:05 1008 29.77 837 24.72 20.5 68.8 29 2 35.5
11:10 1008 29.77 837 24.72 20.4 68.8 29 2.1 35.8
11:15 1008 29.77 837 24.72 20.8 69.5 30 2.6 36.6
11:20 1007 29.74 837 24.72 20.3 68.5 30 2.5 36.5
11:25 1007 29.74 837 24.72 20.9 69.6 29 2.5 36.4
11:30 1007 29.74 837 24.72 21.6 70.9 28 2.5 36.5
11:35 1007 29.74 837 24.72 21.5 70.7 29 2.8 37.1
11:40 1007 29.74 836 24.69 21.6 70.8 28 2.4 36.3
11:45 1007 29.74 836 24.69 22 71.5 29 3.3 37.9
11:50 1007 29.74 836 24.69 21.1 69.9 30 3.1 37.7
11:55 1007 29.74 836 24.69 21.2 70.2 29 2.6 36.7
12:00 1007 29.74 836 24.69 21.8 71.2 27 2.4 36.3
12:05 1007 29.74 836 24.69 21.5 70.7 29 2.7 36.9
12:10 1007 29.74 836 24.69 22.2 71.9 27 2.6 36.7
12:15 1007 29.74 836 24.69 22.4 72.2 29 3.6 38.4
12:20 1007 29.74 836 24.69 22.3 72.1 28 2.9 37.2
12:25 1007 29.74 836 24.69 22.6 72.7 27 3 37.4
12:30 1007 29.74 836 24.69 22.3 72.1 29 3.4 38.1
12:35 1007 29.74 836 24.69 22.5 72.6 28 3.3 37.9
12:40 1007 29.74 836 24.69 23 73.3 28 3.5 38.3
12:45 1007 29.74 836 24.69 23 73.4 27 3.4 38.2
12:50 1006 29.71 836 24.69 22.6 72.7 27 3.1 37.6
12:55 1006 29.71 836 24.69 23.1 73.5 25 2.4 36.3
13:00 1006 29.71 836 24.69 23 73.4 27 3 37.4
13:05 1006 29.71 836 24.69 23.2 73.7 25 2.2 35.9
13:10 1006 29.71 836 24.69 23.1 73.6 26 2.5 36.6
13:15 1006 29.71 835 24.66 22.9 73.2 25 1.8 35.3
13:20 1006 29.71 835 24.66 22.9 73.2 24 1.7 35.1
13:25 1006 29.71 835 24.66 23 73.3 23 1.1 33.9
13:30 1006 29.71 835 24.66 23.7 74.7 23 1.8 35.3
13:35 1006 29.71 835 24.66 23.6 74.6 21 0.6 33
13:40 1006 29.71 835 24.66 24 75.2 21 0.9 33.6
13:45 1006 29.71 835 24.66 24.1 75.5 17 -2.4 27.7
13:50 1006 29.71 835 24.66 23.5 74.2 17 -2.9 26.8
13:55 1006 29.71 835 24.66 23.6 74.5 18 -1.9 28.6
14:00 1006 29.71 835 24.66 23.7 74.7 18 -1.8 28.7
14:05 1006 29.71 835 24.66 23.2 73.8 19 -1.4 29.5
14:10 1006 29.71 835 24.66 22.6 72.7 20 -1.1 30.1
14:15 1006 29.71 835 24.66 22.4 72.3 19 -2.3 27.8
14:20 1006 29.71 835 24.66 22.5 72.5 19 -2.3 27.8
14:25 1006 29.71 835 24.66 23.7 74.6 22 0.9 33.5
14:30 1006 29.71 835 24.66 24.3 75.7 21 1 33.7
14:35 1006 29.71 835 24.66 24.1 75.4 21 0.5 32.8
14:40 1006 29.71 835 24.66 23.6 74.4 21 -0.1 31.8
14:45 1006 29.71 835 24.66 23.9 75 21 0.6 33
14:50 1005 29.68 835 24.66 23.8 74.8 21 0.2 32.4
14:55 1005 29.68 835 24.66 23.2 73.8 22 0.7 33.2
15:00 1005 29.68 835 24.66 22.9 73.1 21 -0.2 31.7
15:05 1005 29.68 834 24.63 23.9 75.1 21 0.3 32.6
15:10 1005 29.68 834 24.63 24.3 75.8 20 0.4 32.8
15:15 1005 29.68 834 24.63 24.5 76.1 21 1.1 34
15:20 1005 29.68 834 24.63 23.9 75.1 22 0.8 33.5
15:25 1005 29.68 834 24.63 24.1 75.3 21 0.5 32.9
15:30 1005 29.68 834 24.63 24.6 76.2 20 0.6 33
15:35 1005 29.68 834 24.63 23.8 74.9 22 0.8 33.5
15:40 1005 29.68 834 24.63 24 75.3 22 1.4 34.5
15:45 1005 29.68 834 24.63 23.4 74 23 1.5 34.7
15:50 1005 29.68 834 24.63 23.3 73.9 24 2 35.7
15:55 1005 29.68 834 24.63 21.8 71.2 26 1.8 35.3
16:00 1005 29.68 834 24.63 21.5 70.8 27 1.8 35.2
16:05 1005 29.68 834 24.63 21.4 70.6 26 1.6 34.8
16:10 1005 29.68 834 24.63 22.4 72.2 25 1.7 35
16:15 1005 29.68 834 24.63 22.9 73.2 25 2 35.6
16:20 1005 29.68 834 24.63 23.2 73.7 27 3.2 37.8
16:25 1005 29.68 834 24.63 22.5 72.5 27 2.7 36.8
16:30 1005 29.68 834 24.63 22.5 72.4 27 3 37.3
16:35 1005 29.68 834 24.63 22.5 72.5 26 2.5 36.5
16:40 1004 29.65 834 24.63 23 73.5 27 3.2 37.7
16:45 1005 29.68 834 24.63 22.6 72.7 27 2.8 37.1
16:50 1004 29.65 834 24.63 22.7 72.8 27 3.1 37.6
16:55 1004 29.65 834 24.63 22.2 71.9 32 4.9 40.8
17:00 1005 29.68 834 24.63 21.2 70.1 35 5.1 41.3
17:05 1005 29.68 834 24.63 20.4 68.7 38 5.7 42.2
17:10 1005 29.68 834 24.63 19 66.3 41 5.7 42.3
17:15 1005 29.68 834 24.63 18.3 64.9 42 5.2 41.4
17:20 1005 29.68 834 24.63 17.6 63.7 44 5.4 41.8
17:25 1005 29.68 834 24.63 17.2 62.9 43 4.7 40.4
17:30 1005 29.68 834 24.63 17.1 62.9 44 4.9 40.8
17:35 1005 29.68 834 24.63 17 62.6 46 5.4 41.7
17:40 1005 29.68 834 24.63 16.9 62.4 44 4.7 40.5
17:45 1005 29.68 834 24.63 17.6 63.7 44 5.3 41.5
17:50 1005 29.68 834 24.63 17.6 63.7 43 5 41
17:55 1005 29.68 834 24.63 17.1 62.7 43 4.4 39.9
18:00 1005 29.68 834 24.63 16.9 62.4 43 4.5 40.1
18:05 1005 29.68 834 24.63 16.9 62.3 44 4.6 40.2
18:10 1005 29.68 834 24.63 16.9 62.4 42 4.1 39.4
18:15 1005 29.68 834 24.63 17.1 62.7 41 3.9 39
18:20 1005 29.68 834 24.63 17.3 63.1 40 3.5 38.3
18:25 1005 29.68 834 24.63 17.5 63.6 39 3.6 38.4
18:30 1005 29.68 834 24.63 17.7 63.9 40 3.9 39.1
18:35 1005 29.68 834 24.63 17.6 63.6 42 4.8 40.6
18:40 1005 29.68 834 24.63 17.1 62.9 44 5 41
18:45 1005 29.68 834 24.63 16.8 62.2 44 4.6 40.4
18:50 1005 29.68 834 24.63 16.9 62.5 43 4.4 40
18:55 1005 29.68 834 24.63 17.2 62.9 41 4 39.1
19:00 1005 29.68 834 24.63 17.4 63.3 39 3.6 38.5
19:05 1005 29.68 834 24.63 17.5 63.5 40 4 39.1
19:10 1005 29.68 834 24.63 17.4 63.2 42 4.4 39.8
19:15 1005 29.68 834 24.63 17.4 63.3 40 3.8 38.8
19:20 1005 29.68 834 24.63 17.5 63.4 40 3.8 38.9
19:25 1005 29.68 834 24.63 17.5 63.4 40 3.7 38.7
19:30 1005 29.68 834 24.63 17.4 63.3 40 3.9 39
19:35 1005 29.68 834 24.63 17.1 62.7 41 3.9 39
19:40 1005 29.68 834 24.63 17 62.6 42 4 39.2
19:45 1005 29.68 834 24.63 17 62.5 43 4.5 40.1
19:50 1005 29.68 834 24.63 16.7 62.1 40 3.1 37.5
19:55 1005 29.68 834 24.63 17.5 63.5 30 -0.2 31.7
20:00 1005 29.68 834 24.63 18.4 65.1 28 -0.5 31.1
20:05 1005 29.68 834 24.63 18.9 66 26 -0.8 30.6
20:10 1005 29.68 834 24.63 19 66.2 25 -1.5 29.3
20:15 1005 29.68 834 24.63 19.1 66.3 25 -1.3 29.6
20:20 1005 29.68 834 24.63 19.1 66.4 35 3.5 38.3
20:25 1005 29.68 834 24.63 17.6 63.7 39 3.5 38.4
20:30 1005 29.68 834 24.63 17.3 63.1 40 3.7 38.6
20:35 1005 29.68 834 24.63 17.1 62.8 42 4.2 39.5
20:40 1005 29.68 834 24.63 16.7 62.1 44 4.4 40
20:45 1005 29.68 834 24.63 16.4 61.4 47 5 41.1
20:50 1005 29.68 834 24.63 16.1 60.9 48 5.1 41.2
20:55 1005 29.68 834 24.63 15.8 60.5 51 5.7 42.2
21:00 1005 29.68 834 24.63 15.8 60.4 48 5 41
21:05 1005 29.68 834 24.63 15.7 60.3 48 4.8 40.6
21:10 1005 29.68 834 24.63 15.8 60.4 48 4.8 40.6
21:15 1005 29.68 835 24.66 15.8 60.5 48 4.9 40.8
21:20 1005 29.68 835 24.66 15.8 60.4 52 6.1 42.9
21:25 1006 29.71 835 24.66 15.7 60.2 49 5.1 41.3
21:30 1005 29.68 835 24.66 15.5 59.9 49 5 41
21:35 1005 29.68 835 24.66 15.6 60 48 4.7 40.4
21:40 1005 29.68 835 24.66 15.7 60.2 48 4.9 40.8
21:45 1005 29.68 835 24.66 16 60.8 44 3.7 38.7
21:50 1005 29.68 835 24.66 16.3 61.3 42 3.4 38.1
21:55 1005 29.68 835 24.66 16.3 61.4 43 4 39.2
22:00 1005 29.68 835 24.66 16.2 61.2 42 3.4 38.1
22:05 1005 29.68 835 24.66 16.2 61.2 41 3.2 37.7
22:10 1006 29.71 835 24.66 16.1 61 43 3.5 38.4
22:15 1006 29.71 835 24.66 16.1 60.9 47 4.7 40.5
22:20 1006 29.71 835 24.66 15.8 60.4 47 4.6 40.3
22:25 1006 29.71 835 24.66 15.6 60.1 46 4 39.2
22:30 1006 29.71 835 24.66 15.6 60.1 48 4.8 40.7
22:35 1006 29.71 835 24.66 15.7 60.2 42 2.9 37.2
22:40 1006 29.71 835 24.66 15.7 60.3 41 2.6 36.8
22:45 1006 29.71 835 24.66 15.8 60.4 41 2.5 36.5
22:50 1006 29.71 835 24.66 15.7 60.3 41 2.6 36.7
22:55 1006 29.71 835 24.66 15.6 60.1 41 2.7 36.8
23:00 1006 29.71 835 24.66 15.4 59.8 42 2.6 36.6
23:05 1006 29.71 835 24.66 15.3 59.6 42 2.7 36.9
23:10 1006 29.71 835 24.66 15.2 59.4 40 1.9 35.4
23:15 1006 29.71 835 24.66 15.2 59.3 41 2.3 36.1
23:20 1006 29.71 835 24.66 15.2 59.3 40 1.7 35.1
23:25 1006 29.71 835 24.66 15.2 59.3 40 1.6 34.9
23:30 1006 29.71 835 24.66 15.1 59.3 40 1.7 35.1
23:35 1006 29.71 835 24.66 15 59 41 1.9 35.4
23:40 1006 29.71 835 24.66 14.8 58.6 41 1.7 35
23:45 1006 29.71 835 24.66 14.7 58.5 40 1.3 34.3
23:50 1006 29.71 835 24.66 14.9 58.9 39 1.3 34.4
23:55 1006 29.71 835 24.66 15 58.9 39 1.4 34.4
24:00 1006 29.71 835 24.66 14.9 58.8 40 1.4 34.6